Time;durP1;ratioP1;P1;durP2;ratioP2;P2;SDS_P1;SDS_P2;PMS_P1;PMS_P2;Temp;Humidity;BMP_temperature;BMP_pressure;BME280_temperature;BME280_humidity;BME280_pressure;Samples;Min_cycle;Max_cycle;Signal;HPM_P1;HPM_P2
2023/01/19 00:01:40;;;;;;;12.87;8.53;;;;;;;-2.38;100.00;150764.69;5028877;28;20438;-84
2023/01/19 00:04:06;;;;;;;11.10;8.73;;;;;;;-2.39;100.00;150763.41;5027453;28;20492;-84
2023/01/19 00:06:33;;;;;;;10.57;8.33;;;;;;;-2.37;100.00;150767.22;5035096;28;20557;-84
2023/01/19 00:09:01;;;;;;;12.53;9.20;;;;;;;-2.35;100.00;150772.31;5038490;28;20454;-84
2023/01/19 00:11:28;;;;;;;10.20;7.93;;;;;;;-2.33;100.00;150777.50;5042945;28;20489;-84
2023/01/19 00:13:55;;;;;;;14.43;8.93;;;;;;;-2.39;100.00;150762.09;5046920;28;21009;-84
2023/01/19 00:16:22;;;;;;;10.00;8.47;;;;;;;-2.38;100.00;150764.69;5024147;28;20971;-84
2023/01/19 00:18:50;;;;;;;13.63;9.63;;;;;;;-2.35;100.00;150772.31;5040177;28;20803;-84
2023/01/19 00:21:17;;;;;;;10.73;9.10;;;;;;;-2.34;100.00;150776.19;5028281;28;20438;-84
2023/01/19 00:23:46;;;;;;;13.00;10.17;;;;;;;-2.35;100.00;150772.31;5030050;28;20788;-84
2023/01/19 00:26:16;;;;;;;11.10;8.70;;;;;;;-2.33;100.00;150778.72;5042156;28;20830;-84
2023/01/19 00:28:43;;;;;;;14.03;10.30;;;;;;;-2.41;100.00;150757.00;5010785;28;20480;-84
2023/01/19 00:31:09;;;;;;;11.50;9.60;;;;;;;-2.40;100.00;150759.53;5034423;28;20523;-84
2023/01/19 00:33:37;;;;;;;13.33;9.63;;;;;;;-2.39;100.00;150762.09;5016460;28;21017;-84
2023/01/19 00:36:04;;;;;;;13.00;8.80;;;;;;;-2.44;100.00;150749.31;5040619;28;20447;-83
2023/01/19 00:38:31;;;;;;;12.93;10.07;;;;;;;-2.53;100.00;150728.81;5027873;28;20467;-84
2023/01/19 00:40:57;;;;;;;13.70;9.30;;;;;;;-2.54;100.00;150724.97;5033352;28;20957;-84
2023/01/19 00:43:24;;;;;;;11.50;8.23;;;;;;;-2.58;100.00;150716.03;5043900;28;20975;-84
2023/01/19 00:45:52;;;;;;;12.27;8.90;;;;;;;-2.57;100.00;150717.31;5037287;28;21021;-84
2023/01/19 00:48:18;;;;;;;13.73;9.87;;;;;;;-2.57;100.00;150717.31;5032497;28;20466;-84
2023/01/19 00:50:45;;;;;;;11.40;8.93;;;;;;;-2.59;100.00;150713.44;5053763;28;20453;-84
2023/01/19 00:53:12;;;;;;;12.70;9.23;;;;;;;-2.59;100.00;150712.16;5035696;28;20860;-84
2023/01/19 00:55:39;;;;;;;13.30;8.90;;;;;;;-2.60;100.00;150710.91;5034878;28;20441;-84
2023/01/19 00:58:06;;;;;;;10.80;8.07;;;;;;;-2.62;100.00;150704.53;5047677;28;20441;-84
2023/01/19 01:00:34;;;;;;;10.07;8.40;;;;;;;-2.66;100.00;150695.53;5042075;28;20454;-84
2023/01/19 01:03:01;;;;;;;10.43;8.60;;;;;;;-2.66;100.00;150695.53;5029074;28;20496;-84
2023/01/19 01:05:28;;;;;;;12.07;9.43;;;;;;;-2.68;100.00;150689.16;5050368;28;20464;-84
2023/01/19 01:07:55;;;;;;;13.77;9.43;;;;;;;-2.69;100.00;150687.84;5043339;28;20477;-84
2023/01/19 01:10:23;;;;;;;10.30;8.43;;;;;;;-2.65;100.00;150696.84;5044072;28;20557;-84
2023/01/19 01:12:50;;;;;;;14.70;9.70;;;;;;;-2.69;100.00;150687.84;5046430;28;20883;-84
2023/01/19 01:15:17;;;;;;;12.07;8.67;;;;;;;-2.70;100.00;150685.28;5035168;28;20440;-84
2023/01/19 01:17:48;;;;;;;10.50;8.33;;;;;;;-2.64;100.00;150699.38;5047445;28;21783;-83
2023/01/19 01:20:16;;;;;;;12.17;8.47;;;;;;;-2.67;100.00;150691.69;5038131;28;20510;-84
2023/01/19 01:22:45;;;;;;;14.70;8.40;;;;;;;-2.71;100.00;150682.75;5035936;28;20863;-84
2023/01/19 01:25:12;;;;;;;11.60;8.43;;;;;;;-2.67;100.00;150692.97;5032150;28;21083;-84
2023/01/19 01:27:39;;;;;;;12.23;8.83;;;;;;;-2.59;100.00;150712.16;5035293;28;20810;-84
2023/01/19 01:30:08;;;;;;;13.07;9.43;;;;;;;-2.64;100.00;150699.38;5031612;28;20793;-84
2023/01/19 01:32:34;;;;;;;11.23;9.00;;;;;;;-2.61;100.00;150708.34;5031821;28;20545;-84
2023/01/19 01:35:03;;;;;;;15.50;10.03;;;;;;;-2.61;100.00;150708.34;5041672;28;20473;-84
2023/01/19 01:37:29;;;;;;;13.27;9.53;;;;;;;-2.61;100.00;150708.34;5029268;28;20455;-84
2023/01/19 01:39:56;;;;;;;12.20;8.40;;;;;;;-2.57;100.00;150717.31;5038023;28;20549;-84
2023/01/19 01:42:27;;;;;;;14.93;11.03;;;;;;;-2.47;100.00;150744.19;5031274;28;20454;-84
2023/01/19 01:44:55;;;;;;;13.53;9.70;;;;;;;-2.45;100.00;150748.03;5030752;28;20460;-84
2023/01/19 01:47:28;;;;;;;12.63;10.37;;;;;;;-2.48;100.00;150740.34;5029255;28;20474;-84
2023/01/19 01:50:00;;;;;;;14.47;10.00;;;;;;;-2.59;100.00;150712.16;5035658;28;20535;-84
2023/01/19 01:52:29;;;;;;;12.57;9.30;;;;;;;-2.54;100.00;150726.25;5032649;28;20893;-84
2023/01/19 01:54:56;;;;;;;14.40;10.23;;;;;;;-2.64;100.00;150700.66;5030579;28;20482;-84
2023/01/19 01:57:26;;;;;;;14.47;8.87;;;;;;;-2.70;100.00;150684.03;5028046;28;20455;-85
2023/01/19 01:59:54;;;;;;;12.47;9.40;;;;;;;-2.70;100.00;150685.28;5041252;28;20517;-85
2023/01/19 02:05:11;;;;;;;14.90;9.70;;;;;;;-2.79;100.00;150660.97;5038315;28;20449;-84
2023/01/19 02:13:19;;;;;;;10.80;8.47;;;;;;;-2.68;100.00;150690.44;5029818;28;20477;-84
2023/01/19 02:15:46;;;;;;;14.53;9.60;;;;;;;-2.70;100.00;150685.28;5044033;28;20449;-84
2023/01/19 02:18:13;;;;;;;11.77;9.47;;;;;;;-2.72;100.00;150678.88;5010275;28;20473;-84
2023/01/19 02:20:42;;;;;;;12.00;9.00;;;;;;;-2.78;100.00;150663.56;5030922;28;20490;-84
2023/01/19 02:23:15;;;;;;;9.80;7.33;;;;;;;-2.81;100.00;150655.88;5024326;28;20950;-84
2023/01/19 02:25:43;;;;;;;11.90;8.50;;;;;;;-2.82;100.00;150654.56;5044962;28;20470;-84
2023/01/19 02:28:10;;;;;;;12.93;9.40;;;;;;;-2.83;100.00;150652.00;5030189;28;20557;-85
2023/01/19 02:30:38;;;;;;;11.53;8.43;;;;;;;-2.83;100.00;150652.00;5047112;28;20489;-85
2023/01/19 02:33:06;;;;;;;15.00;8.30;;;;;;;-2.82;100.00;150654.56;5044010;28;20474;-85
2023/01/19 02:35:33;;;;;;;13.83;9.00;;;;;;;-2.79;100.00;150662.25;5013378;28;20469;-84
2023/01/19 02:38:01;;;;;;;11.43;8.37;;;;;;;-2.83;100.00;150652.00;5031913;28;20537;-84
2023/01/19 02:40:28;;;;;;;13.33;9.20;;;;;;;-2.85;100.00;150646.91;5029565;28;20469;-84
2023/01/19 02:42:59;;;;;;;13.13;9.10;;;;;;;-2.80;100.00;150659.69;5022279;28;20464;-84
2023/01/19 02:45:27;;;;;;;11.43;8.67;;;;;;;-2.90;100.00;150632.81;5025974;28;20457;-84
2023/01/19 02:47:54;;;;;;;13.47;8.80;;;;;;;-2.88;100.00;150639.22;5048124;28;20459;-85
2023/01/19 02:50:43;;;;;;;11.90;8.27;;;;;;;-2.82;100.00;150654.56;5037165;28;20998;-84
2023/01/19 02:53:52;;;;;;;11.67;8.13;;;;;;;-2.83;100.00;150652.00;5042789;28;20459;-84
2023/01/19 02:56:35;;;;;;;11.27;8.20;;;;;;;-2.84;100.00;150648.19;5004761;28;20445;-85
2023/01/19 02:59:08;;;;;;;10.73;7.50;;;;;;;-2.89;100.00;150635.38;5041110;28;20462;-84
2023/01/19 03:01:45;;;;;;;11.90;8.80;;;;;;;-2.90;100.00;150634.09;5038730;28;20446;-85
2023/01/19 03:04:15;;;;;;;12.67;7.93;;;;;;;-2.88;100.00;150637.91;5029447;28;20538;-84
2023/01/19 03:06:44;;;;;;;13.47;9.10;;;;;;;-2.90;100.00;150634.09;5050427;28;20499;-84
2023/01/19 03:09:15;;;;;;;13.83;10.03;;;;;;;-2.86;100.00;150643.06;5032476;28;20466;-84
2023/01/19 03:11:49;;;;;;;12.20;8.97;;;;;;;-2.85;100.00;150646.91;5018839;28;20451;-84
2023/01/19 03:14:21;;;;;;;11.90;8.33;;;;;;;-2.86;100.00;150644.31;5038184;28;20447;-85
2023/01/19 03:16:53;;;;;;;11.37;9.20;;;;;;;-2.94;100.00;150622.59;5034736;28;20458;-84
2023/01/19 03:19:23;;;;;;;11.83;8.20;;;;;;;-2.99;100.00;150611.03;5041944;28;20459;-84
2023/01/19 03:21:54;;;;;;;11.13;7.80;;;;;;;-3.03;100.00;150600.84;5011467;28;20530;-85
2023/01/19 03:24:22;;;;;;;14.40;8.70;;;;;;;-3.06;100.00;150593.16;5042034;28;20922;-85
2023/01/19 03:26:55;;;;;;;10.10;8.30;;;;;;;-3.09;100.00;150586.75;5006081;28;20805;-84
2023/01/19 03:29:24;;;;;;;12.30;8.30;;;;;;;-3.06;100.00;150593.16;5045169;28;20500;-84
2023/01/19 03:31:52;;;;;;;11.27;8.47;;;;;;;-3.09;100.00;150585.47;5047748;28;20470;-85
2023/01/19 03:34:20;;;;;;;13.40;8.73;;;;;;;-3.09;100.00;150586.75;5044490;28;20845;-85
2023/01/19 03:36:51;;;;;;;11.60;8.80;;;;;;;-2.99;100.00;150609.81;5037405;28;20446;-85
2023/01/19 03:39:21;;;;;;;12.30;8.20;;;;;;;-3.02;100.00;150603.41;5028247;28;20455;-85
2023/01/19 03:41:50;;;;;;;12.40;8.17;;;;;;;-3.02;100.00;150603.41;5044983;28;20532;-85
2023/01/19 03:44:17;;;;;;;11.57;8.13;;;;;;;-2.95;100.00;150621.31;5026216;28;20883;-85
2023/01/19 03:46:45;;;;;;;13.87;8.87;;;;;;;-2.95;100.00;150620.00;5027299;28;20473;-84
2023/01/19 03:49:12;;;;;;;11.37;9.00;;;;;;;-2.93;100.00;150626.41;5023899;28;21041;-85
2023/01/19 03:51:39;;;;;;;12.30;8.67;;;;;;;-2.91;100.00;150631.53;5019253;28;20550;-85
2023/01/19 03:54:10;;;;;;;17.13;9.17;;;;;;;-2.91;100.00;150630.28;5036363;28;20451;-85
2023/01/19 03:56:37;;;;;;;11.30;7.90;;;;;;;-2.86;100.00;150644.31;5030655;28;20967;-85
2023/01/19 03:59:04;;;;;;;12.67;8.50;;;;;;;-2.84;100.00;150649.47;5023835;28;21078;-85
2023/01/19 04:01:31;;;;;;;10.63;8.23;;;;;;;-2.85;100.00;150646.91;5006394;28;20486;-85
2023/01/19 04:03:59;;;;;;;13.23;8.20;;;;;;;-2.80;100.00;150659.69;5035210;28;20570;-84
2023/01/19 04:06:27;;;;;;;13.03;9.00;;;;;;;-2.94;100.00;150623.88;5029019;28;20553;-85
2023/01/19 04:08:53;;;;;;;11.67;9.20;;;;;;;-2.81;100.00;150657.16;5030010;28;20470;-84
2023/01/19 04:11:20;;;;;;;13.43;9.70;;;;;;;-2.89;100.00;150636.69;5043730;28;20435;-85
2023/01/19 04:13:47;;;;;;;10.33;8.70;;;;;;;-2.86;100.00;150644.31;5027514;28;20561;-85
2023/01/19 04:16:18;;;;;;;14.73;9.30;;;;;;;-2.91;100.00;150631.53;5042936;28;20819;-85
2023/01/19 04:18:45;;;;;;;13.60;9.03;;;;;;;-2.99;100.00;150609.81;5002724;28;20449;-84
2023/01/19 04:21:13;;;;;;;15.40;9.67;;;;;;;-3.02;100.00;150603.41;5027189;28;20449;-85
2023/01/19 04:23:40;;;;;;;13.53;10.03;;;;;;;-2.88;100.00;150637.91;5002289;28;20460;-85
2023/01/19 04:26:07;;;;;;;13.50;9.17;;;;;;;-2.96;100.00;150618.72;5022723;28;20488;-85
2023/01/19 04:28:35;;;;;;;16.47;10.10;;;;;;;-3.01;100.00;150605.94;5040335;28;21102;-85
2023/01/19 04:31:02;;;;;;;13.87;9.30;;;;;;;-2.95;100.00;150621.31;5027637;28;20554;-85
2023/01/19 04:33:29;;;;;;;13.63;9.20;;;;;;;-2.89;100.00;150636.69;5019983;28;20478;-85
2023/01/19 04:35:56;;;;;;;13.43;9.10;;;;;;;-2.93;100.00;150626.41;5016790;28;20474;-85
2023/01/19 04:38:24;;;;;;;13.30;8.87;;;;;;;-2.92;100.00;150629.00;5047676;28;20443;-85
2023/01/19 04:40:52;;;;;;;11.50;9.20;;;;;;;-2.83;100.00;150652.00;5023897;28;20908;-85
2023/01/19 04:43:19;;;;;;;16.20;9.73;;;;;;;-2.85;100.00;150646.91;5037543;28;20909;-85
2023/01/19 04:45:46;;;;;;;14.80;10.07;;;;;;;-2.81;100.00;150655.88;5028263;28;20450;-85
2023/01/19 04:48:13;;;;;;;14.43;9.13;;;;;;;-2.84;100.00;150648.19;5042059;28;20833;-85
2023/01/19 04:50:40;;;;;;;13.67;8.50;;;;;;;-2.93;100.00;150626.41;5034089;28;20544;-85
2023/01/19 04:53:12;;;;;;;12.67;8.83;;;;;;;-2.94;100.00;150622.59;5028662;28;20455;-85
2023/01/19 04:55:40;;;;;;;13.83;9.83;;;;;;;-2.92;100.00;150629.00;5043003;28;20533;-85
2023/01/19 04:58:07;;;;;;;15.33;10.03;;;;;;;-2.90;100.00;150632.81;5027244;28;20462;-85
2023/01/19 05:00:34;;;;;;;15.50;9.87;;;;;;;-2.88;100.00;150639.22;5025289;28;21009;-85
2023/01/19 05:03:01;;;;;;;16.60;9.27;;;;;;;-2.77;100.00;150666.09;5044400;28;20663;-85
2023/01/19 05:05:27;;;;;;;15.77;9.27;;;;;;;-2.71;100.00;150682.75;5025821;28;20983;-85
2023/01/19 05:07:54;;;;;;;14.00;9.33;;;;;;;-2.80;100.00;150658.41;5028437;28;20487;-85
2023/01/19 05:10:22;;;;;;;11.77;9.00;;;;;;;-2.73;100.00;150676.34;5027636;28;20468;-85
2023/01/19 05:12:50;;;;;;;13.40;9.23;;;;;;;-2.68;100.00;150690.44;5028702;28;20487;-85
2023/01/19 05:15:17;;;;;;;15.20;10.90;;;;;;;-2.77;100.00;150666.09;5041336;28;20553;-85
2023/01/19 05:17:44;;;;;;;13.10;8.73;;;;;;;-2.69;100.00;150687.84;5028665;28;20486;-85
2023/01/19 05:20:12;;;;;;;13.30;9.27;;;;;;;-2.69;100.00;150687.84;5039126;28;21024;-85
2023/01/19 05:22:39;;;;;;;15.20;9.23;;;;;;;-2.70;100.00;150685.28;5037474;28;20557;-85
2023/01/19 05:25:07;;;;;;;12.80;8.77;;;;;;;-2.74;100.00;150675.06;5053590;28;20440;-84
2023/01/19 05:27:34;;;;;;;11.10;8.50;;;;;;;-2.81;100.00;150657.16;5067121;28;20570;-85
2023/01/19 05:30:03;;;;;;;14.07;9.67;;;;;;;-2.73;100.00;150677.63;5033194;28;20501;-84
2023/01/19 05:32:30;;;;;;;12.20;9.37;;;;;;;-2.71;100.00;150682.75;5040711;28;20452;-85
2023/01/19 05:34:57;;;;;;;18.27;10.43;;;;;;;-2.76;100.00;150668.66;5036848;28;20470;-84
2023/01/19 05:37:23;;;;;;;13.80;9.90;;;;;;;-2.84;100.00;150648.19;5043570;28;20459;-85
2023/01/19 05:39:50;;;;;;;12.47;9.60;;;;;;;-2.77;100.00;150667.38;5049413;28;20529;-84
2023/01/19 05:42:17;;;;;;;13.40;8.70;;;;;;;-2.79;100.00;150660.97;5039617;28;20444;-84
2023/01/19 05:44:43;;;;;;;13.27;9.00;;;;;;;-2.83;100.00;150652.00;5047857;28;20449;-84
2023/01/19 05:47:11;;;;;;;15.90;8.57;;;;;;;-2.89;100.00;150635.38;5039072;28;20523;-84
2023/01/19 05:49:38;;;;;;;14.33;8.97;;;;;;;-2.86;100.00;150644.31;5041702;28;20457;-84
2023/01/19 05:52:05;;;;;;;13.33;8.80;;;;;;;-2.87;100.00;150641.78;5033439;28;20461;-84
2023/01/19 05:54:31;;;;;;;10.60;8.27;;;;;;;-2.93;100.00;150626.41;5031233;28;21057;-85
2023/01/19 05:56:58;;;;;;;15.17;9.70;;;;;;;-2.87;100.00;150640.50;5041564;28;20447;-84
2023/01/19 05:59:25;;;;;;;13.93;9.10;;;;;;;-2.95;100.00;150620.00;5048430;28;20553;-84
2023/01/19 06:01:52;;;;;;;13.40;8.33;;;;;;;-2.90;100.00;150634.09;5028740;28;20512;-85
2023/01/19 06:04:20;;;;;;;15.77;8.97;;;;;;;-2.81;100.00;150657.16;5057481;28;20482;-84
2023/01/19 06:06:48;;;;;;;14.33;9.70;;;;;;;-2.87;100.00;150641.78;5065001;28;20449;-84
2023/01/19 06:09:16;;;;;;;11.37;8.70;;;;;;;-2.95;100.00;150621.31;5045725;28;20560;-84
2023/01/19 06:11:42;;;;;;;10.47;7.73;;;;;;;-2.87;100.00;150640.50;5038118;28;20486;-84
2023/01/19 06:14:09;;;;;;;11.93;8.77;;;;;;;-2.93;100.00;150625.13;5061363;28;20490;-83
2023/01/19 06:16:36;;;;;;;13.03;8.80;;;;;;;-2.93;100.00;150625.13;5064594;28;20453;-84
2023/01/19 06:19:03;;;;;;;12.50;9.10;;;;;;;-2.93;100.00;150625.13;5067841;28;20540;-83
2023/01/19 06:21:31;;;;;;;11.60;8.90;;;;;;;-2.89;100.00;150636.69;5070410;28;20486;-84
2023/01/19 06:23:58;;;;;;;11.73;8.33;;;;;;;-2.85;100.00;150646.91;5056016;28;20466;-84
2023/01/19 06:26:33;;;;;;;12.27;8.27;;;;;;;-2.82;100.00;150654.56;5069561;28;20458;-84
2023/01/19 06:29:00;;;;;;;12.90;8.80;;;;;;;-2.86;100.00;150644.31;5069267;28;20481;-84
2023/01/19 06:31:27;;;;;;;15.20;9.23;;;;;;;-2.93;100.00;150625.13;5070580;28;20465;-83
2023/01/19 06:33:54;;;;;;;14.77;8.90;;;;;;;-2.86;100.00;150644.31;5065765;28;20527;-85
2023/01/19 06:36:25;;;;;;;11.57;8.33;;;;;;;-2.87;100.00;150640.50;5033778;28;20960;-82
2023/01/19 06:38:53;;;;;;;12.93;8.87;;;;;;;-2.91;100.00;150631.53;5029468;28;20471;-84
2023/01/19 06:41:20;;;;;;;15.00;8.90;;;;;;;-2.92;100.00;150629.00;5059822;28;20454;-84
2023/01/19 06:43:47;;;;;;;11.47;8.50;;;;;;;-2.92;100.00;150627.69;5042254;28;20943;-84
2023/01/19 06:46:13;;;;;;;13.87;8.77;;;;;;;-2.89;100.00;150635.38;5036922;28;20597;-84
2023/01/19 06:48:40;;;;;;;11.03;8.00;;;;;;;-2.85;100.00;150645.59;5041819;28;20472;-84
2023/01/19 06:51:07;;;;;;;13.27;9.13;;;;;;;-2.82;100.00;150654.56;5057549;28;20539;-84
2023/01/19 06:53:33;;;;;;;10.70;8.37;;;;;;;-2.80;100.00;150658.41;5052704;28;21030;-84
2023/01/19 06:56:02;;;;;;;10.40;7.30;;;;;;;-2.83;100.00;150652.00;5059670;28;20863;-84
2023/01/19 06:58:29;;;;;;;17.50;8.83;;;;;;;-2.76;100.00;150669.94;5058626;28;20466;-84
2023/01/19 07:00:58;;;;;;;10.90;8.07;;;;;;;-2.76;100.00;150668.66;5002647;28;20807;-84
2023/01/19 07:03:25;;;;;;;13.40;7.67;;;;;;;-2.72;100.00;150680.16;5042329;28;20486;-84
2023/01/19 07:05:52;;;;;;;8.83;7.33;;;;;;;-2.81;100.00;150657.16;5039949;28;20450;-84
2023/01/19 07:08:19;;;;;;;11.10;7.83;;;;;;;-2.87;100.00;150641.78;5059714;28;20512;-84
2023/01/19 07:10:46;;;;;;;11.00;7.20;;;;;;;-2.83;100.00;150652.00;5056014;28;20450;-85
2023/01/19 07:13:14;;;;;;;10.43;6.57;;;;;;;-2.87;100.00;150641.78;5056955;28;20499;-84
2023/01/19 07:15:41;;;;;;;9.47;6.83;;;;;;;-2.85;100.00;150645.59;5024497;28;20438;-84
2023/01/19 07:18:08;;;;;;;10.90;6.87;;;;;;;-2.81;100.00;150655.88;5037367;28;20546;-84
2023/01/19 07:20:35;;;;;;;10.10;7.00;;;;;;;-2.94;100.00;150623.88;5050580;28;20449;-84
2023/01/19 07:23:02;;;;;;;12.93;7.97;;;;;;;-2.92;100.00;150629.00;5000645;28;20470;-84
2023/01/19 07:25:29;;;;;;;11.57;7.07;;;;;;;-2.92;100.00;150629.00;5064066;28;20469;-84
2023/01/19 07:27:57;;;;;;;11.50;7.53;;;;;;;-2.80;100.00;150659.69;5062043;28;20559;-84
2023/01/19 07:30:25;;;;;;;12.17;7.87;;;;;;;-2.73;100.00;150677.63;5062625;28;20450;-83
2023/01/19 07:32:55;;;;;;;11.87;7.43;;;;;;;-2.77;100.00;150666.09;5003834;28;20552;-85
2023/01/19 07:35:21;;;;;;;11.30;7.60;;;;;;;-2.75;100.00;150672.47;5048919;28;20847;-85
2023/01/19 07:37:51;;;;;;;11.30;6.83;;;;;;;-2.73;100.00;150677.63;5055146;28;20541;-85
2023/01/19 07:40:18;;;;;;;9.23;6.57;;;;;;;-2.72;100.00;150680.16;5059426;28;20947;-85
2023/01/19 07:42:49;;;;;;;10.00;7.40;;;;;;;-2.81;100.00;150655.88;5055768;28;20552;-85
2023/01/19 07:45:16;;;;;;;12.20;8.37;;;;;;;-2.81;100.00;150657.16;5052216;28;20472;-85
2023/01/19 07:47:45;;;;;;;7.57;6.00;;;;;;;-2.82;100.00;150654.56;5062045;28;20484;-85
2023/01/19 07:50:12;;;;;;;9.47;6.67;;;;;;;-2.81;100.00;150657.16;5059099;28;20443;-85
2023/01/19 07:52:39;;;;;;;10.23;7.50;;;;;;;-2.83;100.00;150652.00;5050659;28;20466;-85
2023/01/19 07:55:06;;;;;;;9.97;6.67;;;;;;;-2.86;100.00;150644.31;5052019;28;20545;-85
2023/01/19 07:57:33;;;;;;;7.37;6.23;;;;;;;-2.83;100.00;150650.75;5047885;28;20506;-85
2023/01/19 08:00:00;;;;;;;8.83;6.23;;;;;;;-2.83;100.00;150650.75;5056060;28;20449;-85
2023/01/19 08:02:27;;;;;;;8.43;6.30;;;;;;;-2.75;100.00;150672.47;5045435;28;21838;-85
2023/01/19 08:04:55;;;;;;;11.90;6.77;;;;;;;-2.59;100.00;150712.16;5028768;28;20593;-85
2023/01/19 08:07:21;;;;;;;7.80;6.23;;;;;;;-2.38;100.00;150764.69;5029783;28;20507;-85
2023/01/19 08:09:48;;;;;;;10.87;7.40;;;;;;;-2.19;100.00;150813.31;5041489;28;20537;-85
2023/01/19 08:12:16;;;;;;;12.40;6.70;;;;;;;-2.16;100.00;150821.00;5041734;28;20445;-85
2023/01/19 08:14:42;;;;;;;10.47;7.60;;;;;;;-2.25;100.00;150799.22;5050151;28;20622;-84
2023/01/19 08:17:12;;;;;;;11.93;7.20;;;;;;;-2.26;100.00;150796.69;5042044;28;20549;-85
2023/01/19 08:19:40;;;;;;;9.53;6.80;;;;;;;-2.21;100.00;150809.50;5051776;28;20448;-85
2023/01/19 08:22:08;;;;;;;8.87;6.93;;;;;;;-2.24;100.00;150800.50;5055184;28;20445;-85
2023/01/19 08:24:35;;;;;;;8.90;6.27;;;;;;;-2.06;100.00;150847.91;5047195;28;20969;-86
2023/01/19 08:27:02;;;;;;;8.57;6.80;;;;;;;-2.09;100.00;150838.97;5044270;28;20477;-86
2023/01/19 08:29:30;;;;;;;8.57;5.93;;;;;;;-2.09;100.00;150840.22;5060389;28;20472;-85
2023/01/19 08:31:58;;;;;;;9.23;6.30;;;;;;;-1.99;100.00;150864.56;5053211;28;20803;-87
2023/01/19 08:34:25;;;;;;;8.63;6.70;;;;;;;-1.96;100.00;150872.25;5057018;28;20449;-85
2023/01/19 08:36:52;;;;;;;8.70;6.40;;;;;;;-1.81;100.00;150909.38;5045941;28;20458;-86
2023/01/19 08:39:22;;;;;;;6.70;6.00;;;;;;;-1.78;100.00;150918.38;5032868;28;20456;-85
2023/01/19 08:41:49;;;;;;;9.57;6.00;;;;;;;-1.76;100.00;150922.19;5053103;28;20446;-85
2023/01/19 08:44:16;;;;;;;10.70;5.70;;;;;;;-1.87;100.00;150895.28;5059793;28;20515;-86
2023/01/19 08:46:43;;;;;;;9.13;6.50;;;;;;;-1.85;100.00;150901.69;5059124;28;20816;-85
2023/01/19 08:49:10;;;;;;;7.67;5.50;;;;;;;-1.78;100.00;150917.09;5052590;28;20466;-86
2023/01/19 08:51:37;;;;;;;8.27;5.93;;;;;;;-1.80;100.00;150913.22;5045118;28;20458;-85
2023/01/19 08:54:04;;;;;;;9.37;6.17;;;;;;;-1.89;100.00;150890.19;5064331;28;20450;-85
2023/01/19 08:56:32;;;;;;;9.43;6.30;;;;;;;-1.95;100.00;150874.78;5058654;28;20559;-85
2023/01/19 08:58:58;;;;;;;8.80;6.20;;;;;;;-1.90;100.00;150888.88;5029856;28;20511;-85
2023/01/19 09:01:25;;;;;;;10.13;6.63;;;;;;;-1.75;100.00;150926.06;5037359;28;20486;-85
2023/01/19 09:03:53;;;;;;;8.83;6.17;;;;;;;-1.69;100.00;150940.13;5047335;28;20471;-85
2023/01/19 09:06:20;;;;;;;10.50;6.27;;;;;;;-1.65;100.00;150951.69;5058218;28;20469;-85
2023/01/19 09:08:47;;;;;;;9.00;5.97;;;;;;;-1.61;100.00;150961.91;5061242;28;20481;-85
2023/01/19 09:11:16;;;;;;;12.73;6.67;;;;;;;-1.49;100.00;150991.41;5030057;28;20463;-85
2023/01/19 09:13:44;;;;;;;7.93;5.77;;;;;;;-1.48;100.00;150995.22;5065675;28;20453;-85
2023/01/19 09:16:11;;;;;;;9.30;6.87;;;;;;;-1.30;100.00;151041.34;5040775;28;20499;-85
2023/01/19 09:18:38;;;;;;;8.30;6.33;;;;;;;-1.31;100.00;151038.81;5045698;28;20576;-85
2023/01/19 09:21:05;;;;;;;9.83;6.50;;;;;;;-1.28;100.00;151046.50;5064923;28;20454;-85
2023/01/19 09:23:32;;;;;;;7.87;6.67;;;;;;;-1.26;100.00;151051.63;5046606;28;20503;-85
2023/01/19 09:26:01;;;;;;;8.20;5.93;;;;;;;-1.27;100.00;151049.06;5062930;28;20458;-85
2023/01/19 09:28:29;;;;;;;8.40;6.60;;;;;;;-1.14;100.00;151081.13;5058854;28;20471;-85
2023/01/19 09:30:57;;;;;;;8.27;6.27;;;;;;;-1.04;100.00;151105.47;5047195;28;20928;-85
2023/01/19 09:33:24;;;;;;;9.40;6.60;;;;;;;-0.99;100.00;151119.56;5057714;28;20461;-85
2023/01/19 09:35:51;;;;;;;7.63;5.50;;;;;;;-0.95;100.00;151129.81;5049401;28;20464;-85
2023/01/19 09:38:19;;;;;;;6.70;5.00;;;;;;;-0.87;100.00;151150.31;5059175;28;20449;-85
2023/01/19 09:40:48;;;;;;;7.43;5.10;;;;;;;-0.86;100.00;151152.91;5061001;28;20446;-85
2023/01/19 09:43:21;;;;;;;9.10;5.97;;;;;;;-0.85;100.00;151155.44;5043008;28;20516;-85
2023/01/19 09:45:51;;;;;;;7.50;5.80;;;;;;;-0.84;100.00;151158.03;5042648;28;20453;-85
2023/01/19 09:48:45;;;;;;;9.20;6.10;;;;;;;-0.82;100.00;151163.16;5011800;28;20873;-85
2023/01/19 09:51:16;;;;;;;8.10;6.10;;;;;;;-0.81;100.00;151165.72;5039233;28;20539;-85
2023/01/19 09:53:59;;;;;;;7.20;5.80;;;;;;;-0.76;100.00;151177.25;5028398;28;20468;-85
2023/01/19 09:56:27;;;;;;;8.83;5.80;;;;;;;-0.75;100.00;151179.84;5043385;28;20445;-85
2023/01/19 09:58:54;;;;;;;7.80;5.87;;;;;;;-0.72;100.00;151188.81;5008552;28;21015;-85
2023/01/19 10:01:33;;;;;;;7.67;5.80;;;;;;;-0.71;100.00;151190.06;5048316;28;20458;-85
2023/01/19 10:04:28;;;;;;;8.50;5.70;;;;;;;-0.64;100.00;151209.28;5036284;28;20596;-85
2023/01/19 10:06:59;;;;;;;8.30;6.70;;;;;;;-0.63;100.00;151211.88;5017805;28;20949;-85
2023/01/19 10:09:32;;;;;;;9.57;6.43;;;;;;;-0.52;100.00;151238.81;5037324;28;20588;-85
2023/01/19 10:12:03;;;;;;;9.30;6.50;;;;;;;-0.46;100.00;151254.22;5017063;28;20809;-85
2023/01/19 10:14:36;;;;;;;9.97;6.87;;;;;;;-0.44;100.00;151259.34;5018230;28;20856;-84
2023/01/19 10:17:14;;;;;;;12.40;5.70;;;;;;;-0.41;100.00;151265.75;5052336;28;20450;-85
2023/01/19 10:19:45;;;;;;;5.97;5.13;;;;;;;-0.34;100.00;151284.97;5049618;28;20455;-85
2023/01/19 10:22:19;;;;;;;6.77;5.73;;;;;;;-0.35;100.00;151282.44;5056306;28;20452;-85
2023/01/19 10:24:47;;;;;;;7.10;5.57;;;;;;;-0.39;100.00;151272.16;5047096;28;20441;-85
2023/01/19 10:27:17;;;;;;;7.87;5.73;;;;;;;-0.36;100.00;151279.88;5042780;28;20455;-85
2023/01/19 10:29:44;;;;;;;7.27;5.93;;;;;;;-0.32;100.00;151290.09;5059221;28;20477;-85
2023/01/19 10:32:15;;;;;;;7.30;5.37;;;;;;;-0.28;100.00;151300.41;5060692;28;20454;-85
2023/01/19 10:34:44;;;;;;;8.77;5.17;;;;;;;-0.26;100.00;151305.50;5046821;28;20575;-84
2023/01/19 10:37:18;;;;;;;7.43;5.17;;;;;;;-0.20;100.00;151319.63;5003358;28;20446;-85
2023/01/19 10:39:46;;;;;;;8.93;5.67;;;;;;;-0.14;100.00;151336.34;5049029;28;20520;-85
2023/01/19 10:42:15;;;;;;;6.80;5.60;;;;;;;-0.16;99.95;151331.16;5051052;28;20556;-85
2023/01/19 10:44:44;;;;;;;6.30;5.50;;;;;;;-0.14;100.00;151335.03;5044152;28;20450;-85
2023/01/19 10:47:15;;;;;;;8.90;5.40;;;;;;;-0.02;100.00;151367.09;5054872;28;20442;-85
2023/01/19 10:49:44;;;;;;;6.40;4.53;;;;;;;-0.09;100.00;151349.16;5053129;28;20527;-85
2023/01/19 10:52:20;;;;;;;9.60;6.07;;;;;;;-0.03;100.00;151364.53;5031007;28;20889;-85
2023/01/19 10:54:48;;;;;;;8.30;5.37;;;;;;;-0.06;100.00;151356.88;5027538;28;20597;-85
2023/01/19 10:57:23;;;;;;;11.37;5.27;;;;;;;-0.06;100.00;151356.88;5048724;28;20454;-85
2023/01/19 10:59:50;;;;;;;7.30;5.53;;;;;;;-0.03;100.00;151363.28;5038197;28;20464;-85
2023/01/19 11:02:19;;;;;;;9.47;5.60;;;;;;;-0.02;100.00;151367.09;5042981;28;20813;-84
2023/01/19 11:04:49;;;;;;;6.33;5.70;;;;;;;-0.03;100.00;151363.28;5055446;28;20480;-85
2023/01/19 11:07:19;;;;;;;7.97;5.00;;;;;;;0.04;100.00;151379.94;5037590;28;20485;-84
2023/01/19 11:09:46;;;;;;;7.03;6.37;;;;;;;0.00;100.00;151372.22;5054270;28;20568;-85
2023/01/19 11:12:21;;;;;;;7.90;5.73;;;;;;;-0.02;100.00;151365.81;5059269;28;20445;-85
2023/01/19 11:14:49;;;;;;;9.03;5.60;;;;;;;0.03;100.00;151377.41;5039644;28;20447;-85
2023/01/19 11:17:21;;;;;;;9.43;6.30;;;;;;;0.06;100.00;151386.34;5055863;28;20957;-84
2023/01/19 11:20:00;;;;;;;7.57;5.23;;;;;;;0.04;100.00;151379.94;5024147;28;20874;-84
2023/01/19 11:22:28;;;;;;;7.43;6.07;;;;;;;0.05;99.67;151382.50;5052698;28;20556;-84
2023/01/19 11:25:03;;;;;;;8.23;5.60;;;;;;;0.21;100.00;151424.88;5056272;28;21975;-84
2023/01/19 11:27:32;;;;;;;5.43;4.93;;;;;;;0.15;100.00;151409.47;5051727;28;20560;-84